Time;durP1;ratioP1;P1;durP2;ratioP2;P2;SDS_P1;SDS_P2;PMS_P1;PMS_P2;Temp;Humidity;BMP_temperature;BMP_pressure;BME280_temperature;BME280_humidity;BME280_pressure;Samples;Min_cycle;Max_cycle;Signal;HPM_P1;HPM_P2
2023/09/04 00:00:20;;;;;;;9.17;8.10;;;17.60;99.90;;;;;;5054578;28;20245;-87
2023/09/04 00:02:47;;;;;;;12.70;9.57;;;17.60;99.90;;;;;;5036483;28;20207;-88
2023/09/04 00:05:12;;;;;;;17.27;9.88;;;17.60;1.00;;;;;;5041108;28;20209;-87
2023/09/04 00:07:59;;;;;;;12.93;8.90;;;17.60;1.00;;;;;;5054604;28;20231;-89
2023/09/04 00:10:24;;;;;;;13.73;9.57;;;17.60;1.00;;;;;;5052656;28;20678;-89
2023/09/04 00:12:53;;;;;;;12.10;8.70;;;17.60;99.90;;;;;;5054389;28;20514;-87
2023/09/04 00:15:18;;;;;;;13.23;7.77;;;17.60;1.00;;;;;;5051762;28;20617;-88
2023/09/04 00:18:06;;;;;;;12.17;9.83;;;17.50;1.00;;;;;;5054728;28;20430;-88
2023/09/04 00:20:32;;;;;;;12.77;8.80;;;17.50;1.00;;;;;;5027440;28;20211;-89
2023/09/04 00:23:04;;;;;;;11.17;9.10;;;17.50;1.00;;;;;;5053773;28;20484;-87
2023/09/04 00:28:20;;;;;;;14.83;9.30;;;17.40;1.00;;;;;;5053262;28;20933;-88
2023/09/04 00:30:46;;;;;;;16.40;8.60;;;17.40;16.50;;;;;;5045070;28;20484;-88
2023/09/04 00:33:11;;;;;;;15.83;8.90;;;17.20;1.00;;;;;;5038178;28;21019;-88
2023/09/04 00:36:02;;;;;;;13.70;9.50;;;17.20;1.00;;;;;;5054075;28;20477;-88
2023/09/04 00:38:27;;;;;;;12.23;9.38;;;17.10;1.00;;;;;;5036516;28;20246;-88
2023/09/04 00:40:53;;;;;;;15.63;9.20;;;17.10;99.90;;;;;;5053106;28;20302;-88
2023/09/04 00:43:18;;;;;;;13.53;10.27;;;17.00;1.00;;;;;;5043169;28;20209;-88
2023/09/04 00:45:45;;;;;;;15.93;11.03;;;16.90;1.00;;;;;;5035616;28;20555;-88
2023/09/04 00:48:27;;;;;;;15.60;10.30;;;16.90;99.90;;;;;;5031321;28;20187;-88
2023/09/04 00:51:08;;;;;;;11.57;10.37;;;16.70;1.00;;;;;;5036868;28;20469;-87
2023/09/04 00:53:35;;;;;;;17.90;10.43;;;16.70;99.90;;;;;;5052885;28;20973;-89
2023/09/04 00:56:02;;;;;;;15.00;10.10;;;16.60;99.90;;;;;;5036821;28;20793;-88
2023/09/04 00:58:27;;;;;;;13.53;9.80;;;16.60;99.90;;;;;;5051512;28;20480;-88
2023/09/04 01:00:54;;;;;;;13.90;10.03;;;16.50;99.90;;;;;;5032407;28;20461;-88
2023/09/04 01:03:21;;;;;;;14.73;9.63;;;16.50;1.00;;;;;;5025429;28;20211;-88
2023/09/04 01:05:47;;;;;;;10.17;8.57;;;16.50;1.00;;;;;;5053368;28;20460;-88
2023/09/04 01:08:14;;;;;;;15.03;9.80;;;16.60;1.00;;;;;;5034243;28;20447;-88
2023/09/04 01:11:03;;;;;;;15.40;9.47;;;16.60;99.90;;;;;;5050830;28;20193;-88
2023/09/04 01:13:40;;;;;;;12.40;8.70;;;16.60;99.90;;;;;;5050145;28;20455;-88
2023/09/04 01:16:06;;;;;;;14.30;8.97;;;16.60;99.90;;;;;;5049909;28;20451;-88
2023/09/04 01:18:34;;;;;;;9.97;8.43;;;16.60;99.90;;;;;;5051155;28;20428;-89
2023/09/04 01:21:04;;;;;;;13.90;8.82;;;16.60;99.90;;;;;;5051887;28;20472;-87
2023/09/04 01:23:29;;;;;;;11.67;9.47;;;16.70;99.90;;;;;;5041384;28;20194;-88
2023/09/04 01:26:13;;;;;;;12.90;9.73;;;16.70;1.00;;;;;;5048930;28;20440;-87
2023/09/04 01:29:14;;;;;;;12.40;8.55;;;16.70;1.00;;;;;;5043744;28;20192;-87
2023/09/04 01:32:14;;;;;;;12.53;8.70;;;16.70;1.00;;;;;;5040063;28;20193;-88
2023/09/04 01:34:46;;;;;;;15.60;9.83;;;16.70;1.00;;;;;;5051241;28;20440;-88
2023/09/04 01:37:13;;;;;;;11.70;9.70;;;;;;;;;;5052325;28;20458;-88
2023/09/04 01:39:40;;;;;;;11.87;9.80;;;14.10;99.90;;;;;;5047296;28;20444;-88
2023/09/04 01:42:06;;;;;;;12.13;9.33;;;16.50;99.90;;;;;;5050124;28;20478;-87
2023/09/04 01:44:32;;;;;;;14.50;9.43;;;16.50;99.90;;;;;;5052066;28;20547;-88
2023/09/04 01:46:59;;;;;;;11.80;8.70;;;16.50;99.90;;;;;;5033781;28;20188;-87
2023/09/04 01:49:24;;;;;;;18.83;9.97;;;16.40;99.90;;;;;;5051673;28;20443;-85
2023/09/04 01:51:51;;;;;;;12.50;9.50;;;16.40;99.90;;;;;;5051335;28;20437;-88
2023/09/04 01:54:17;;;;;;;13.50;8.70;;;16.40;99.90;;;;;;5053067;28;20212;-87
2023/09/04 01:56:43;;;;;;;10.63;9.00;;;16.40;99.90;;;;;;5053574;28;20430;-87
2023/09/04 01:59:08;;;;;;;9.47;8.10;;;16.40;99.90;;;;;;5046650;28;20236;-89
2023/09/04 02:01:35;;;;;;;13.27;9.40;;;16.40;99.90;;;;;;5054394;28;20205;-86
2023/09/04 02:04:00;;;;;;;11.17;8.97;;;16.40;99.90;;;;;;5050587;28;20234;-88
2023/09/04 02:06:29;;;;;;;19.80;9.07;;;16.30;99.90;;;;;;5050885;28;20484;-88
2023/09/04 02:08:55;;;;;;;11.43;8.93;;;16.30;99.90;;;;;;5046104;28;20182;-88
2023/09/04 02:11:21;;;;;;;18.30;10.63;;;16.30;99.90;;;;;;5051867;28;20444;-88
2023/09/04 02:13:47;;;;;;;13.10;8.70;;;16.30;1.00;;;;;;5050209;28;20466;-87
2023/09/04 02:16:13;;;;;;;15.40;8.97;;;16.30;1.00;;;;;;5049707;28;20196;-88
2023/09/04 02:18:39;;;;;;;14.17;8.97;;;16.20;3.90;;;;;;5051617;28;20447;-87
2023/09/04 02:21:05;;;;;;;9.77;8.73;;;16.20;12.00;;;;;;5032545;28;20249;-87
2023/09/04 02:23:30;;;;;;;19.73;9.40;;;16.20;1.00;;;;;;5051700;28;20454;-88
2023/09/04 02:25:56;;;;;;;10.57;8.60;;;16.20;1.00;;;;;;5051217;28;20440;-85
2023/09/04 02:28:22;;;;;;;11.70;9.20;;;16.20;1.00;;;;;;5032888;28;20201;-88
2023/09/04 02:30:47;;;;;;;12.97;9.20;;;16.20;1.00;;;;;;5033012;28;20181;-87
2023/09/04 02:33:13;;;;;;;15.90;8.60;;;16.20;1.00;;;;;;5029921;28;20730;-87
2023/09/04 02:35:38;;;;;;;15.10;9.10;;;16.10;1.00;;;;;;5033787;28;20268;-88
2023/09/04 02:38:04;;;;;;;13.10;9.47;;;16.10;1.00;;;;;;5051090;28;20200;-88
2023/09/04 02:40:30;;;;;;;11.27;9.30;;;16.00;1.00;;;;;;5037248;28;20204;-87
2023/09/04 02:42:55;;;;;;;13.03;9.20;;;16.00;1.00;;;;;;5032758;28;21012;-88
2023/09/04 02:45:21;;;;;;;15.43;9.93;;;16.00;1.00;;;;;;5032575;28;20192;-88
2023/09/04 02:47:47;;;;;;;13.70;9.50;;;16.00;1.00;;;;;;5032726;28;20256;-88
2023/09/04 02:50:12;;;;;;;11.77;8.07;;;15.90;1.00;;;;;;5024983;28;20197;-87
2023/09/04 02:52:38;;;;;;;14.43;8.67;;;15.90;1.00;;;;;;5049180;28;21001;-88
2023/09/04 02:55:05;;;;;;;12.93;8.97;;;15.90;1.00;;;;;;5045589;28;20276;-88
2023/09/04 02:57:31;;;;;;;11.00;8.57;;;15.90;1.00;;;;;;5031964;28;20197;-87
2023/09/04 02:59:58;;;;;;;13.47;9.53;;;15.90;1.00;;;;;;5049841;28;20436;-88
2023/09/04 03:02:23;;;;;;;12.17;8.77;;;15.90;35.40;;;;;;5031821;28;20479;-88
2023/09/04 03:04:53;;;;;;;9.90;8.20;;;15.90;1.40;;;;;;5050646;28;20444;-86
2023/09/04 03:07:19;;;;;;;9.97;8.07;;;15.90;1.00;;;;;;5047678;28;20185;-87
2023/09/04 03:09:44;;;;;;;13.77;9.43;;;15.90;1.00;;;;;;5050122;28;20455;-87
2023/09/04 03:12:10;;;;;;;9.30;8.30;;;15.90;1.00;;;;;;5048234;28;20579;-88
2023/09/04 03:14:36;;;;;;;18.93;9.60;;;15.80;1.00;;;;;;5048595;28;20200;-88
2023/09/04 03:17:04;;;;;;;14.60;8.50;;;15.80;1.00;;;;;;5049821;28;20276;-88
2023/09/04 03:19:30;;;;;;;15.43;10.10;;;15.70;1.00;;;;;;5032630;28;20242;-87
2023/09/04 03:21:55;;;;;;;11.43;9.50;;;15.70;12.20;;;;;;5032024;28;20482;-85
2023/09/04 03:24:30;;;;;;;10.80;9.53;;;15.70;99.90;;;;;;5041425;28;20223;-87
2023/09/04 03:26:56;;;;;;;14.77;9.77;;;15.60;99.90;;;;;;5035166;28;20203;-87
2023/09/04 03:29:22;;;;;;;16.70;10.13;;;15.60;99.90;;;;;;5035584;28;20439;-87
2023/09/04 03:31:48;;;;;;;16.60;12.10;;;15.50;99.90;;;;;;5037604;28;20861;-87
2023/09/04 03:34:14;;;;;;;22.50;11.27;;;15.40;1.00;;;;;;5052444;28;20631;-88
2023/09/04 03:36:40;;;;;;;18.00;12.03;;;15.30;1.00;;;;;;5053952;28;20189;-88
2023/09/04 03:39:06;;;;;;;20.10;12.70;;;15.30;1.00;;;;;;5034324;28;20520;-87
2023/09/04 03:41:32;;;;;;;16.63;12.33;;;15.20;1.00;;;;;;5036253;28;20205;-88
2023/09/04 03:43:57;;;;;;;14.40;11.33;;;15.20;1.00;;;;;;5052670;28;20525;-88
2023/09/04 03:46:23;;;;;;;15.43;11.77;;;15.20;1.00;;;;;;5034421;28;20188;-87
2023/09/04 03:48:48;;;;;;;22.10;12.00;;;15.20;1.00;;;;;;5036844;28;20804;-87
2023/09/04 03:51:14;;;;;;;15.60;12.83;;;15.20;1.00;;;;;;5059962;28;20198;-88
2023/09/04 03:53:45;;;;;;;18.27;12.90;;;15.10;1.00;;;;;;5055054;28;20224;-88
2023/09/04 03:56:11;;;;;;;18.57;12.83;;;15.20;1.00;;;;;;5030444;28;20201;-88
2023/09/04 03:58:36;;;;;;;19.73;13.30;;;15.20;1.00;;;;;;5036412;28;20424;-87
2023/09/04 04:01:05;;;;;;;16.83;12.53;;;15.20;1.00;;;;;;5036098;28;20212;-87
2023/09/04 04:03:30;;;;;;;16.70;13.40;;;15.20;1.00;;;;;;5054438;28;20210;-88
2023/09/04 04:05:56;;;;;;;16.30;13.63;;;15.10;1.00;;;;;;5059092;28;20945;-88
2023/09/04 04:08:24;;;;;;;19.47;14.53;;;15.10;1.00;;;;;;5036807;28;20473;-87
2023/09/04 04:10:50;;;;;;;18.13;14.18;;;15.10;1.00;;;;;;5068484;28;20189;-88
2023/09/04 04:13:15;;;;;;;22.10;13.33;;;15.10;1.00;;;;;;5034505;28;20210;-87
2023/09/04 04:15:41;;;;;;;15.83;13.20;;;15.10;1.00;;;;;;5051444;28;20268;-88
2023/09/04 04:18:09;;;;;;;16.50;12.67;;;15.10;1.00;;;;;;5052200;28;20186;-87
2023/09/04 04:20:34;;;;;;;16.13;13.60;;;15.10;1.00;;;;;;5053990;28;20475;-88
2023/09/04 04:23:00;;;;;;;16.73;13.00;;;15.00;1.00;;;;;;5051273;28;20898;-87
2023/09/04 04:25:26;;;;;;;18.63;13.90;;;15.00;1.00;;;;;;5053296;28;20177;-88
2023/09/04 04:27:51;;;;;;;14.80;12.70;;;15.00;1.00;;;;;;5055469;28;20263;-87
2023/09/04 04:30:17;;;;;;;14.57;12.97;;;15.00;1.00;;;;;;5046516;28;20195;-88
2023/09/04 04:32:42;;;;;;;19.37;13.47;;;15.00;1.00;;;;;;5051745;28;20702;-87
2023/09/04 04:35:08;;;;;;;15.93;14.10;;;15.00;1.00;;;;;;5032817;28;20188;-88
2023/09/04 04:37:34;;;;;;;19.03;13.97;;;14.90;1.00;;;;;;5054964;28;20729;-86
2023/09/04 04:40:12;;;;;;;16.57;14.10;;;15.00;1.00;;;;;;5037514;28;20224;-87
2023/09/04 04:42:37;;;;;;;20.50;13.83;;;14.90;1.00;;;;;;5032617;28;20772;-87
2023/09/04 04:45:07;;;;;;;16.80;13.40;;;15.00;1.00;;;;;;5035253;28;20431;-88
2023/09/04 04:47:32;;;;;;;17.53;12.20;;;15.00;1.00;;;;;;5031239;28;20569;-87
2023/09/04 04:49:58;;;;;;;13.53;11.90;;;15.00;1.00;;;;;;5036529;28;20427;-88
2023/09/04 04:52:23;;;;;;;13.83;12.30;;;15.00;1.00;;;;;;5051478;28;20255;-87
2023/09/04 04:54:49;;;;;;;15.23;11.17;;;15.00;1.00;;;;;;5048711;28;20217;-84
2023/09/04 04:57:16;;;;;;;15.00;11.97;;;14.90;1.00;;;;;;5051912;28;20247;-85
2023/09/04 04:59:41;;;;;;;14.00;11.70;;;14.90;1.00;;;;;;5053043;28;20920;-87
2023/09/04 05:02:07;;;;;;;12.70;11.00;;;14.90;1.00;;;;;;5051209;28;20532;-87
2023/09/04 05:04:35;;;;;;;13.47;11.00;;;15.00;1.00;;;;;;5030988;28;20355;-87
2023/09/04 05:07:00;;;;;;;15.30;10.87;;;15.10;1.00;;;;;;5050001;28;20651;-87
2023/09/04 05:09:26;;;;;;;12.80;10.60;;;15.20;1.00;;;;;;5035074;28;20482;-88
2023/09/04 05:11:51;;;;;;;15.27;10.80;;;15.20;1.00;;;;;;5050346;28;20186;-86
2023/09/04 05:14:17;;;;;;;11.60;10.40;;;15.30;1.00;;;;;;5030165;28;20311;-88
2023/09/04 05:16:42;;;;;;;11.43;9.70;;;15.40;1.00;;;;;;5051910;28;20185;-88
2023/09/04 05:19:08;;;;;;;14.03;9.80;;;15.40;1.00;;;;;;5051779;28;20663;-87
2023/09/04 05:21:34;;;;;;;12.87;9.80;;;15.50;1.00;;;;;;5049219;28;20219;-88
2023/09/04 05:23:59;;;;;;;19.47;10.50;;;15.50;1.00;;;;;;5050323;28;20210;-88
2023/09/04 05:26:25;;;;;;;12.00;9.77;;;15.60;1.00;;;;;;5035337;28;20665;-86
2023/09/04 05:28:50;;;;;;;13.03;10.10;;;15.80;1.00;;;;;;5052492;28;20177;-88
2023/09/04 05:31:16;;;;;;;13.27;10.43;;;15.90;1.00;;;;;;5053433;28;20746;-88
2023/09/04 05:33:42;;;;;;;12.47;10.07;;;16.00;1.00;;;;;;5035493;28;20205;-87
2023/09/04 05:36:09;;;;;;;10.83;9.63;;;16.10;1.00;;;;;;5036228;28;20183;-86
2023/09/04 05:38:34;;;;;;;12.43;9.30;;;16.20;99.90;;;;;;5036831;28;20189;-87
2023/09/04 05:41:00;;;;;;;12.97;9.83;;;16.40;99.90;;;;;;5035836;28;20469;-87
2023/09/04 05:43:44;;;;;;;11.77;9.23;;;16.60;99.90;;;;;;5053733;28;20706;-88
2023/09/04 05:46:10;;;;;;;9.40;8.50;;;18.00;1.00;;;;;;5032319;28;20173;-88
2023/09/04 05:48:36;;;;;;;9.13;8.13;;;20.50;99.90;;;;;;5053050;28;20421;-87
2023/09/04 05:51:02;;;;;;;10.87;8.00;;;22.10;23.30;;;;;;5052113;28;20241;-88
2023/09/04 05:53:28;;;;;;;7.40;6.70;;;23.20;1.00;;;;;;5049453;28;20205;-89
2023/09/04 05:56:09;;;;;;;10.40;6.63;;;24.10;1.00;;;;;;5036812;28;20846;-89
2023/09/04 05:58:51;;;;;;;8.00;6.60;;;24.90;1.00;;;;;;5058109;28;20440;-91
2023/09/04 06:01:19;;;;;;;8.90;7.00;;;26.30;1.00;;;;;;5029904;28;20228;-91
2023/09/04 06:03:45;;;;;;;10.53;6.77;;;27.40;1.00;;;;;;5028068;28;20471;-90
2023/09/04 06:06:12;;;;;;;6.37;5.77;;;28.20;1.00;;;;;;5022152;28;20441;-91
2023/09/04 06:08:37;;;;;;;7.10;6.50;;;29.20;1.00;;;;;;5044453;28;20538;-90
2023/09/04 06:11:04;;;;;;;6.33;5.73;;;31.30;1.00;;;;;;5045936;28;20452;-92
2023/09/04 06:13:31;;;;;;;6.80;5.40;;;32.10;1.00;;;;;;5042434;28;20206;-92
2023/09/04 06:15:59;;;;;;;11.77;5.32;;;32.70;1.00;;;;;;5023362;28;20440;-91
2023/09/04 06:18:27;;;;;;;6.72;5.88;;;34.20;1.00;;;;;;5043295;28;20190;-91
2023/09/04 06:20:52;;;;;;;9.00;5.40;;;34.20;1.00;;;;;;5041012;28;20197;-93
2023/09/04 06:23:18;;;;;;;5.13;4.60;;;35.90;1.00;;;;;;5026052;28;20828;-91
2023/09/04 06:25:44;;;;;;;5.90;5.23;;;37.40;99.90;;;;;;5026065;28;20639;-91
2023/09/04 06:28:10;;;;;;;6.10;5.45;;;38.70;99.90;;;;;;5050472;28;20181;-91
2023/09/04 06:30:36;;;;;;;8.90;4.72;;;39.00;99.90;;;;;;5043063;28;20205;-92
2023/09/04 06:33:03;;;;;;;6.47;4.97;;;39.90;99.90;;;;;;5050305;28;20211;-93
2023/09/04 06:35:29;;;;;;;4.55;4.25;;;40.30;99.90;;;;;;5044704;28;20472;-89
2023/09/04 06:37:55;;;;;;;5.23;4.70;;;41.80;99.90;;;;;;5040202;28;20214;-89
2023/09/04 06:40:21;;;;;;;5.13;4.60;;;42.30;99.90;;;;;;5039128;28;20243;-92
2023/09/04 06:42:46;;;;;;;5.70;4.50;;;42.90;99.90;;;;;;5042617;28;21012;-89
2023/09/04 06:45:13;;;;;;;5.37;4.87;;;42.90;99.90;;;;;;5044098;28;20431;-90
2023/09/04 06:47:39;;;;;;;5.70;5.13;;;42.30;99.90;;;;;;5046014;28;20262;-89
2023/09/04 06:50:06;;;;;;;12.93;6.87;;;41.80;99.90;;;;;;5043059;28;20438;-90
2023/09/04 06:52:32;;;;;;;5.17;4.77;;;41.20;99.90;;;;;;5044185;28;20453;-90
2023/09/04 06:54:57;;;;;;;6.60;5.90;;;41.20;99.90;;;;;;5058683;28;20504;-92
2023/09/04 06:57:23;;;;;;;6.37;5.73;;;41.00;99.90;;;;;;5046754;28;20178;-91
2023/09/04 06:59:48;;;;;;;6.30;5.70;;;41.90;99.90;;;;;;5053034;28;20173;-89
2023/09/04 07:02:14;;;;;;;9.17;5.80;;;42.70;99.90;;;;;;5029310;28;20428;-91
2023/09/04 07:04:40;;;;;;;12.63;6.23;;;42.60;99.90;;;;;;5024090;28;20200;-90
2023/09/04 07:07:05;;;;;;;6.77;6.10;;;42.90;99.90;;;;;;5045425;28;20278;-92
2023/09/04 07:09:31;;;;;;;7.10;6.43;;;42.70;99.90;;;;;;5025721;28;20209;-91
2023/09/04 07:11:56;;;;;;;6.37;5.97;;;41.30;99.90;;;;;;5044806;28;20201;-90
2023/09/04 07:14:22;;;;;;;6.83;6.23;;;40.90;99.90;;;;;;5026449;28;20213;-91
2023/09/04 07:16:48;;;;;;;7.37;5.80;;;42.00;99.90;;;;;;5047157;28;20690;-93
2023/09/04 07:19:13;;;;;;;6.23;5.63;;;41.70;99.90;;;;;;5046571;28;20201;-91
2023/09/04 07:21:40;;;;;;;6.40;5.87;;;42.30;99.90;;;;;;5041317;28;20193;-91
2023/09/04 07:24:08;;;;;;;5.27;4.77;;;42.10;99.90;;;;;;5030540;28;20201;-91
2023/09/04 07:26:34;;;;;;;8.20;5.60;;;44.10;99.90;;;;;;5064218;28;20504;-92
2023/09/04 07:29:02;;;;;;;7.40;6.70;;;43.60;99.90;;;;;;5044456;28;20419;-90
2023/09/04 07:31:28;;;;;;;6.10;5.60;;;40.70;99.90;;;;;;5060707;28;20238;-92
2023/09/04 07:33:54;;;;;;;6.82;6.22;;;42.50;99.90;;;;;;5031771;28;20452;-91
2023/09/04 07:36:21;;;;;;;5.77;5.27;;;42.50;99.90;;;;;;5042037;28;20212;-91
2023/09/04 07:38:48;;;;;;;5.60;5.10;;;41.90;99.90;;;;;;5050342;28;20867;-91
2023/09/04 07:41:14;;;;;;;7.00;6.30;;;42.60;99.90;;;;;;5030716;28;20198;-91
2023/09/04 07:43:39;;;;;;;7.77;5.30;;;42.80;99.90;;;;;;5026214;28;20449;-92
2023/09/04 07:46:05;;;;;;;6.20;5.60;;;42.90;99.90;;;;;;5049626;28;20192;-92
2023/09/04 07:48:33;;;;;;;5.87;5.37;;;42.50;99.90;;;;;;5044425;28;20187;-91
2023/09/04 07:51:03;;;;;;;5.30;4.10;;;42.60;99.90;;;;;;5050720;28;20606;-91
2023/09/04 07:53:28;;;;;;;4.00;3.70;;;44.70;99.90;;;;;;5035174;28;20807;-92
2023/09/04 07:55:54;;;;;;;5.60;4.70;;;43.70;99.90;;;;;;5037593;28;20184;-92
2023/09/04 07:58:20;;;;;;;5.00;4.60;;;44.40;99.90;;;;;;5037377;28;20213;-91
2023/09/04 08:00:48;;;;;;;4.40;3.77;;;44.10;99.90;;;;;;5053232;28;20635;-92
2023/09/04 08:03:14;;;;;;;6.70;3.63;;;43.20;99.90;;;;;;5031235;28;20529;-91
2023/09/04 08:05:40;;;;;;;4.10;3.70;;;43.80;99.90;;;;;;5034512;28;20425;-92
2023/09/04 08:08:10;;;;;;;5.63;3.80;;;42.80;99.90;;;;;;5047100;28;20437;-92
2023/09/04 08:10:40;;;;;;;6.30;3.00;;;43.60;99.90;;;;;;5025762;28;20473;-91
2023/09/04 08:13:12;;;;;;;3.43;3.13;;;43.50;99.90;;;;;;5034226;28;20460;-91
2023/09/04 08:15:38;;;;;;;6.20;3.33;;;43.30;99.90;;;;;;5037633;28;20427;-91
2023/09/04 08:18:05;;;;;;;13.80;3.67;;;44.40;99.90;;;;;;5039563;28;20435;-91
2023/09/04 08:20:45;;;;;;;3.90;2.40;;;42.90;99.90;;;;;;5053890;28;20839;-90
2023/09/04 08:26:13;;;;;;;5.80;3.10;;;42.50;99.90;;;;;;5041950;28;20928;-90
2023/09/04 08:28:39;;;;;;;4.30;2.73;;;44.60;99.90;;;;;;5024556;28;20450;-90
2023/09/04 08:31:05;;;;;;;4.22;3.00;;;44.30;99.90;;;;;;5039731;28;20462;-89
2023/09/04 08:33:30;;;;;;;4.93;2.80;;;44.50;99.90;;;;;;5048695;28;20235;-92
2023/09/04 08:36:06;;;;;;;3.20;2.43;;;44.70;99.90;;;;;;5024039;28;20174;-89
2023/09/04 08:38:31;;;;;;;5.50;2.80;;;43.80;99.90;;;;;;5026963;28;20504;-89
2023/09/04 08:41:04;;;;;;;2.70;2.30;;;43.90;99.90;;;;;;5024020;28;21024;-89
2023/09/04 08:43:31;;;;;;;2.73;2.40;;;43.30;99.90;;;;;;5038469;28;20808;-90
2023/09/04 08:46:02;;;;;;;4.10;2.57;;;43.80;99.90;;;;;;5026347;28;20437;-90
2023/09/04 08:48:30;;;;;;;4.60;3.10;;;42.30;99.90;;;;;;5043753;28;20519;-90
2023/09/04 08:50:56;;;;;;;4.93;2.70;;;42.30;99.90;;;;;;5040616;28;20461;-90
2023/09/04 08:53:22;;;;;;;3.63;2.60;;;42.40;99.90;;;;;;5045631;28;20467;-91
2023/09/04 08:55:49;;;;;;;2.90;2.63;;;41.70;99.90;;;;;;5043950;28;20341;-91
2023/09/04 08:58:15;;;;;;;3.43;2.40;;;43.50;99.90;;;;;;5047845;28;20689;-90
2023/09/04 09:00:42;;;;;;;4.70;2.47;;;43.90;99.90;;;;;;5026507;28;20443;-89
2023/09/04 09:03:08;;;;;;;4.33;2.60;;;42.80;99.90;;;;;;5051214;28;20590;-89
2023/09/04 09:05:35;;;;;;;4.40;2.50;;;44.90;99.90;;;;;;5037212;28;20499;-88
2023/09/04 09:08:02;;;;;;;3.70;3.33;;;45.50;99.90;;;;;;5058460;28;20219;-89
2023/09/04 09:10:28;;;;;;;2.80;2.50;;;44.50;99.90;;;;;;5058558;28;20186;-89
2023/09/04 09:12:54;;;;;;;4.63;2.72;;;44.20;99.90;;;;;;5059499;28;20455;-90
2023/09/04 09:15:19;;;;;;;3.60;2.90;;;44.50;99.90;;;;;;5051050;28;20646;-90
2023/09/04 09:18:03;;;;;;;5.50;2.70;;;42.20;99.90;;;;;;5049620;28;20256;-90
2023/09/04 09:20:34;;;;;;;4.57;2.47;;;42.00;99.90;;;;;;5056249;28;20174;-90
2023/09/04 09:23:01;;;;;;;3.33;2.60;;;40.90;99.90;;;;;;5054507;28;20519;-88
2023/09/04 09:25:27;;;;;;;5.43;3.10;;;42.40;99.90;;;;;;5054395;28;20435;-90
2023/09/04 09:28:05;;;;;;;4.67;3.10;;;41.40;99.90;;;;;;5050394;28;20420;-90
2023/09/04 09:30:40;;;;;;;3.97;2.77;;;41.00;99.90;;;;;;5047782;28;20176;-90
2023/09/04 09:33:15;;;;;;;3.90;3.00;;;40.20;99.90;;;;;;5044598;28;20494;-88
2023/09/04 09:35:41;;;;;;;4.85;2.72;;;41.60;99.90;;;;;;5056478;28;20447;-90
2023/09/04 09:38:07;;;;;;;4.90;2.83;;;42.30;99.90;;;;;;5039351;28;20188;-89
2023/09/04 09:40:32;;;;;;;3.83;2.87;;;43.10;99.90;;;;;;5038347;28;20223;-89
2023/09/04 09:43:01;;;;;;;3.20;2.80;;;43.00;99.90;;;;;;5045335;28;20330;-88
2023/09/04 09:45:32;;;;;;;5.40;3.87;;;42.80;99.90;;;;;;5039318;28;20985;-90
2023/09/04 09:47:58;;;;;;;5.37;3.00;;;42.10;99.90;;;;;;5054275;28;20951;-89
2023/09/04 09:50:24;;;;;;;3.23;2.93;;;42.30;99.90;;;;;;5057214;28;20441;-91
2023/09/04 09:52:58;;;;;;;4.82;3.08;;;41.70;99.90;;;;;;5058161;28;20568;-88
2023/09/04 09:55:25;;;;;;;4.90;3.47;;;41.90;99.90;;;;;;5045275;28;20555;-90
2023/09/04 09:57:52;;;;;;;5.43;2.70;;;41.90;99.90;;;;;;5057497;28;20883;-88
2023/09/04 10:00:18;;;;;;;3.37;3.07;;;41.30;99.90;;;;;;5036317;28;20451;-91
2023/09/04 10:02:45;;;;;;;3.87;3.47;;;41.00;99.90;;;;;;5055740;28;20448;-90
2023/09/04 10:05:11;;;;;;;4.17;2.93;;;41.20;99.90;;;;;;5038700;28;20447;-89
2023/09/04 10:07:42;;;;;;;5.13;2.97;;;41.50;99.90;;;;;;5048319;28;20428;-90
2023/09/04 10:10:11;;;;;;;4.57;3.63;;;41.30;99.90;;;;;;5052819;28;20436;-90
2023/09/04 10:12:43;;;;;;;5.80;3.63;;;40.30;99.90;;;;;;5039285;28;20467;-90
2023/09/04 10:15:14;;;;;;;4.90;3.47;;;41.20;99.90;;;;;;5053837;28;20446;-90
2023/09/04 10:17:50;;;;;;;4.07;3.13;;;40.00;99.90;;;;;;5034223;28;20432;-90
2023/09/04 10:20:15;;;;;;;4.43;3.07;;;39.70;99.90;;;;;;5040256;28;20427;-90
2023/09/04 10:22:48;;;;;;;3.88;3.22;;;39.60;99.90;;;;;;5035881;28;20455;-90
2023/09/04 10:25:31;;;;;;;6.80;3.25;;;40.30;99.90;;;;;;5060263;28;20177;-90
2023/09/04 10:28:04;;;;;;;3.80;2.80;;;40.10;99.90;;;;;;5057032;28;20253;-89
2023/09/04 10:30:32;;;;;;;4.43;2.97;;;40.30;99.90;;;;;;5048296;28;21389;-89
2023/09/04 10:32:59;;;;;;;4.07;3.20;;;39.80;99.90;;;;;;5055914;28;20448;-89
2023/09/04 10:35:26;;;;;;;5.60;3.00;;;39.70;99.90;;;;;;5050715;28;20450;-88
2023/09/04 10:37:52;;;;;;;3.60;2.87;;;40.10;99.90;;;;;;5035516;28;20432;-90
2023/09/04 10:40:18;;;;;;;3.83;2.60;;;39.70;99.90;;;;;;5056169;28;20432;-90
2023/09/04 10:42:44;;;;;;;3.33;2.90;;;39.90;99.90;;;;;;5058035;28;20468;-89
2023/09/04 10:45:15;;;;;;;2.80;2.40;;;39.10;99.90;;;;;;5057936;28;20192;-90
2023/09/04 10:47:51;;;;;;;3.35;2.67;;;38.80;99.90;;;;;;5059362;28;20933;-88
2023/09/04 10:50:36;;;;;;;5.53;3.03;;;39.30;99.90;;;;;;5054368;28;20307;-89
2023/09/04 10:53:07;;;;;;;3.90;3.13;;;38.80;99.90;;;;;;5056203;28;20201;-89
2023/09/04 10:55:36;;;;;;;4.43;2.63;;;39.70;99.90;;;;;;5057934;28;20419;-90
2023/09/04 10:58:04;;;;;;;2.85;2.47;;;39.20;99.90;;;;;;5057170;28;20427;-89
2023/09/04 11:00:38;;;;;;;3.10;2.15;;;39.40;99.90;;;;;;5057478;28;20185;-89
2023/09/04 11:03:23;;;;;;;4.33;2.90;;;39.30;99.90;;;;;;5035837;28;20213;-87
2023/09/04 11:06:07;;;;;;;5.40;2.93;;;39.30;99.90;;;;;;5051996;28;20447;-88
2023/09/04 11:08:40;;;;;;;5.47;3.47;;;38.60;99.90;;;;;;5043641;28;20436;-89
2023/09/04 11:11:08;;;;;;;3.83;2.33;;;38.20;99.90;;;;;;5054520;28;20581;-88
2023/09/04 11:13:48;;;;;;;7.53;3.50;;;37.50;99.90;;;;;;5053098;28;20444;-91
2023/09/04 11:16:15;;;;;;;4.40;2.47;;;36.80;99.90;;;;;;5034234;28;20440;-89
2023/09/04 11:18:43;;;;;;;4.00;2.42;;;36.80;99.90;;;;;;5056968;28;20196;-88
2023/09/04 11:21:10;;;;;;;4.13;2.10;;;36.10;99.90;;;;;;5034430;28;20193;-89
2023/09/04 11:23:36;;;;;;;3.37;2.23;;;36.20;99.90;;;;;;5052492;28;20868;-89
2023/09/04 11:26:02;;;;;;;5.00;3.20;;;36.40;99.90;;;;;;5046985;28;20436;-90
2023/09/04 11:28:28;;;;;;;5.60;2.10;;;35.80;99.90;;;;;;5051463;28;20600;-90
2023/09/04 11:31:00;;;;;;;3.00;2.70;;;36.30;99.90;;;;;;5049754;28;20554;-90
2023/09/04 11:33:33;;;;;;;4.03;2.73;;;35.70;99.90;;;;;;5034033;28;20189;-88
2023/09/04 11:36:03;;;;;;;3.93;2.63;;;35.30;99.90;;;;;;5036695;28;20435;-92
2023/09/04 11:38:32;;;;;;;6.30;2.70;;;35.70;99.90;;;;;;5051706;28;20440;-89
2023/09/04 11:41:36;;;;;;;;;;;;;;;;;;;;;
2023/09/04 11:44:04;;;;;;;3.40;2.25;;;35.60;99.90;;;;;;5047361;28;20898;-89
2023/09/04 11:46:30;;;;;;;3.30;2.90;;;35.10;99.90;;;;;;5051046;28;20228;-88
2023/09/04 11:48:56;;;;;;;3.60;2.60;;;35.20;99.90;;;;;;5055340;28;20787;-89
2023/09/04 11:51:21;;;;;;;2.70;2.50;;;35.30;99.90;;;;;;5047831;28;20206;-90
2023/09/04 11:53:50;;;;;;;3.28;2.50;;;35.30;99.90;;;;;;5053830;28;20509;-89
2023/09/04 11:56:16;;;;;;;5.03;2.80;;;35.60;99.90;;;;;;5034833;28;20192;-90
2023/09/04 11:58:41;;;;;;;4.93;2.73;;;36.00;99.90;;;;;;5035187;28;20437;-89
2023/09/04 12:01:10;;;;;;;4.17;3.03;;;36.10;99.90;;;;;;5053126;28;20745;-89
2023/09/04 12:03:35;;;;;;;4.40;2.60;;;35.20;99.90;;;;;;5033339;28;20201;-89
2023/09/04 12:06:04;;;;;;;3.33;2.58;;;34.80;99.90;;;;;;5039033;28;20451;-88
2023/09/04 12:08:30;;;;;;;10.33;3.13;;;35.10;99.90;;;;;;5051012;28;20178;-88
2023/09/04 12:10:56;;;;;;;3.72;2.50;;;35.00;99.90;;;;;;5046207;28;20459;-89
2023/09/04 12:13:22;;;;;;;2.23;2.03;;;35.40;99.90;;;;;;5054425;28;20273;-89
2023/09/04 12:15:48;;;;;;;3.30;2.40;;;35.60;99.90;;;;;;5052592;28;20505;-89
2023/09/04 12:18:15;;;;;;;2.17;1.90;;;35.90;99.90;;;;;;5037354;28;20174;-88
2023/09/04 12:20:46;;;;;;;4.20;2.50;;;35.10;99.90;;;;;;5053571;28;20174;-87
2023/09/04 12:23:15;;;;;;;4.50;2.43;;;35.10;99.90;;;;;;5051678;28;20969;-89
2023/09/04 12:25:44;;;;;;;3.10;2.50;;;34.80;99.90;;;;;;5058349;28;20456;-89
2023/09/04 12:28:20;;;;;;;6.53;2.20;;;35.00;99.90;;;;;;5054310;28;20502;-89
2023/09/04 12:30:48;;;;;;;3.10;2.23;;;35.00;99.90;;;;;;5035224;28;20446;-88
2023/09/04 12:33:16;;;;;;;3.63;2.47;;;34.80;99.90;;;;;;5051131;28;20464;-88
2023/09/04 12:35:42;;;;;;;5.93;2.00;;;35.20;99.90;;;;;;5053985;28;20417;-87
2023/09/04 12:38:08;;;;;;;5.78;2.50;;;35.40;99.90;;;;;;5051357;28;20546;-88
2023/09/04 12:40:35;;;;;;;5.97;1.90;;;35.80;99.90;;;;;;5053109;28;20190;-89
2023/09/04 12:43:24;;;;;;;7.33;2.37;;;35.50;99.90;;;;;;5052548;28;20194;-88
2023/09/04 12:45:49;;;;;;;5.57;2.47;;;35.70;99.90;;;;;;5034825;28;20420;-86
2023/09/04 12:48:15;;;;;;;3.27;2.37;;;35.20;99.90;;;;;;5029404;28;20439;-87
2023/09/04 12:50:41;;;;;;;4.73;2.10;;;35.30;99.90;;;;;;5048584;28;20599;-88
2023/09/04 12:53:06;;;;;;;3.50;2.37;;;35.20;99.90;;;;;;5052834;28;20485;-88
2023/09/04 12:55:32;;;;;;;4.63;2.97;;;34.90;99.90;;;;;;5052026;28;20656;-88